sensor_id;sensor_type;location;lat;lon;timestamp;pressure;altitude;pressure_sealevel;temperature
8533;BMP280;4304;53.876;10.662;2023-06-04T00:00:59;102257.19;;;9.70
8533;BMP280;4304;53.876;10.662;2023-06-04T00:03:25;102256.22;;;9.73
8533;BMP280;4304;53.876;10.662;2023-06-04T00:05:50;102256.28;;;9.71
8533;BMP280;4304;53.876;10.662;2023-06-04T00:08:15;102249.75;;;9.61
8533;BMP280;4304;53.876;10.662;2023-06-04T00:10:41;102249.34;;;9.50
8533;BMP280;4304;53.876;10.662;2023-06-04T00:13:06;102261.22;;;9.35
8533;BMP280;4304;53.876;10.662;2023-06-04T00:15:32;102246.31;;;9.39
8533;BMP280;4304;53.876;10.662;2023-06-04T00:17:57;102260.13;;;9.40
8533;BMP280;4304;53.876;10.662;2023-06-04T00:20:22;102257.97;;;9.30
8533;BMP280;4304;53.876;10.662;2023-06-04T00:22:48;102256.28;;;9.29
8533;BMP280;4304;53.876;10.662;2023-06-04T00:25:13;102257.41;;;9.22
8533;BMP280;4304;53.876;10.662;2023-06-04T00:27:38;102252.41;;;9.17
8533;BMP280;4304;53.876;10.662;2023-06-04T00:30:04;102256.41;;;9.26
8533;BMP280;4304;53.876;10.662;2023-06-04T00:32:30;102240.03;;;9.24
8533;BMP280;4304;53.876;10.662;2023-06-04T00:34:56;102238.34;;;9.23
8533;BMP280;4304;53.876;10.662;2023-06-04T00:37:23;102245.63;;;9.13
8533;BMP280;4304;53.876;10.662;2023-06-04T00:39:49;102246.25;;;8.97
8533;BMP280;4304;53.876;10.662;2023-06-04T00:42:15;102239.59;;;8.90
8533;BMP280;4304;53.876;10.662;2023-06-04T00:44:40;102244.69;;;8.93
8533;BMP280;4304;53.876;10.662;2023-06-04T00:47:13;102232.56;;;8.93
8533;BMP280;4304;53.876;10.662;2023-06-04T00:49:39;102239.44;;;8.94
8533;BMP280;4304;53.876;10.662;2023-06-04T00:52:05;102244.84;;;8.89
8533;BMP280;4304;53.876;10.662;2023-06-04T00:54:30;102233.03;;;8.82
8533;BMP280;4304;53.876;10.662;2023-06-04T00:56:57;102251.13;;;8.83
8533;BMP280;4304;53.876;10.662;2023-06-04T00:59:23;102238.16;;;8.83
8533;BMP280;4304;53.876;10.662;2023-06-04T01:01:51;102233.81;;;8.84
8533;BMP280;4304;53.876;10.662;2023-06-04T01:04:48;102240.69;;;8.85
8533;BMP280;4304;53.876;10.662;2023-06-04T01:07:16;102251.00;;;8.86
8533;BMP280;4304;53.876;10.662;2023-06-04T01:09:42;102231.41;;;8.78
8533;BMP280;4304;53.876;10.662;2023-06-04T01:12:09;102230.59;;;8.77
8533;BMP280;4304;53.876;10.662;2023-06-04T01:14:35;102238.47;;;8.74
8533;BMP280;4304;53.876;10.662;2023-06-04T01:24:53;102239.13;;;8.56
8533;BMP280;4304;53.876;10.662;2023-06-04T01:27:21;102243.03;;;8.45
8533;BMP280;4304;53.876;10.662;2023-06-04T01:29:47;102246.69;;;8.38
8533;BMP280;4304;53.876;10.662;2023-06-04T01:32:15;102249.47;;;8.34
8533;BMP280;4304;53.876;10.662;2023-06-04T01:34:47;102249.03;;;8.21
8533;BMP280;4304;53.876;10.662;2023-06-04T01:37:12;102249.06;;;8.20
8533;BMP280;4304;53.876;10.662;2023-06-04T01:39:38;102242.41;;;8.13
8533;BMP280;4304;53.876;10.662;2023-06-04T01:42:04;102240.66;;;8.13
8533;BMP280;4304;53.876;10.662;2023-06-04T01:44:29;102240.91;;;8.06
8533;BMP280;4304;53.876;10.662;2023-06-04T01:46:54;102246.88;;;8.08
8533;BMP280;4304;53.876;10.662;2023-06-04T01:49:20;102246.09;;;8.06
8533;BMP280;4304;53.876;10.662;2023-06-04T01:51:45;102243.50;;;8.06
8533;BMP280;4304;53.876;10.662;2023-06-04T01:54:10;102246.47;;;7.94
8533;BMP280;4304;53.876;10.662;2023-06-04T01:56:36;102254.94;;;7.99
8533;BMP280;4304;53.876;10.662;2023-06-04T01:59:01;102254.22;;;7.94
8533;BMP280;4304;53.876;10.662;2023-06-04T02:01:27;102252.66;;;7.90
8533;BMP280;4304;53.876;10.662;2023-06-04T02:03:52;102251.16;;;7.83
8533;BMP280;4304;53.876;10.662;2023-06-04T02:06:18;102248.63;;;7.82
8533;BMP280;4304;53.876;10.662;2023-06-04T02:08:43;102252.97;;;7.81
8533;BMP280;4304;53.876;10.662;2023-06-04T02:11:09;102241.84;;;7.78
8533;BMP280;4304;53.876;10.662;2023-06-04T02:13:34;102244.63;;;7.72
8533;BMP280;4304;53.876;10.662;2023-06-04T02:16:00;102249.69;;;7.76
8533;BMP280;4304;53.876;10.662;2023-06-04T02:18:26;102244.63;;;7.72
8533;BMP280;4304;53.876;10.662;2023-06-04T02:20:51;102246.25;;;7.74
8533;BMP280;4304;53.876;10.662;2023-06-04T02:23:18;102242.19;;;7.67
8533;BMP280;4304;53.876;10.662;2023-06-04T02:25:44;102245.78;;;7.64
8533;BMP280;4304;53.876;10.662;2023-06-04T02:28:13;102242.44;;;7.60
8533;BMP280;4304;53.876;10.662;2023-06-04T02:30:39;102244.22;;;7.58
8533;BMP280;4304;53.876;10.662;2023-06-04T02:33:04;102232.31;;;7.53
8533;BMP280;4304;53.876;10.662;2023-06-04T02:35:31;102239.28;;;7.51
8533;BMP280;4304;53.876;10.662;2023-06-04T02:37:57;102235.00;;;7.50
8533;BMP280;4304;53.876;10.662;2023-06-04T02:40:25;102233.28;;;7.50
8533;BMP280;4304;53.876;10.662;2023-06-04T02:42:52;102236.00;;;7.46
8533;BMP280;4304;53.876;10.662;2023-06-04T02:45:17;102236.78;;;7.48
8533;BMP280;4304;53.876;10.662;2023-06-04T02:47:43;102239.44;;;7.46
8533;BMP280;4304;53.876;10.662;2023-06-04T02:50:08;102243.72;;;7.47
8533;BMP280;4304;53.876;10.662;2023-06-04T02:52:34;102232.59;;;7.45
8533;BMP280;4304;53.876;10.662;2023-06-04T02:55:03;102240.69;;;7.33
8533;BMP280;4304;53.876;10.662;2023-06-04T02:57:32;102239.06;;;7.31
8533;BMP280;4304;53.876;10.662;2023-06-04T02:59:59;102231.09;;;7.37
8533;BMP280;4304;53.876;10.662;2023-06-04T03:02:25;102236.22;;;7.38
8533;BMP280;4304;53.876;10.662;2023-06-04T03:04:50;102237.28;;;7.33
8533;BMP280;4304;53.876;10.662;2023-06-04T03:07:17;102241.53;;;7.35
8533;BMP280;4304;53.876;10.662;2023-06-04T03:09:46;102238.09;;;7.33
8533;BMP280;4304;53.876;10.662;2023-06-04T03:12:12;102238.03;;;7.36
8533;BMP280;4304;53.876;10.662;2023-06-04T03:14:37;102231.09;;;7.37
8533;BMP280;4304;53.876;10.662;2023-06-04T03:17:03;102237.94;;;7.39
8533;BMP280;4304;53.876;10.662;2023-06-04T03:19:38;102237.75;;;7.45
8533;BMP280;4304;53.876;10.662;2023-06-04T03:22:04;102235.22;;;7.44
8533;BMP280;4304;53.876;10.662;2023-06-04T03:24:34;102234.16;;;7.49
8533;BMP280;4304;53.876;10.662;2023-06-04T03:27:00;102243.75;;;7.46
8533;BMP280;4304;53.876;10.662;2023-06-04T03:29:26;102230.91;;;7.43
8533;BMP280;4304;53.876;10.662;2023-06-04T03:31:52;102238.47;;;7.50
8533;BMP280;4304;53.876;10.662;2023-06-04T03:34:17;102236.63;;;7.54
8533;BMP280;4304;53.876;10.662;2023-06-04T03:36:42;102240.78;;;7.58
8533;BMP280;4304;53.876;10.662;2023-06-04T03:39:08;102243.94;;;7.67
8533;BMP280;4304;53.876;10.662;2023-06-04T03:41:33;102241.03;;;7.76
8533;BMP280;4304;53.876;10.662;2023-06-04T03:43:58;102233.94;;;7.82
8533;BMP280;4304;53.876;10.662;2023-06-04T03:46:24;102232.91;;;7.88
8533;BMP280;4304;53.876;10.662;2023-06-04T03:48:52;102248.16;;;7.95
8533;BMP280;4304;53.876;10.662;2023-06-04T03:51:17;102240.09;;;8.04
8533;BMP280;4304;53.876;10.662;2023-06-04T03:53:42;102237.97;;;8.16
8533;BMP280;4304;53.876;10.662;2023-06-04T03:56:08;102236.78;;;8.26
8533;BMP280;4304;53.876;10.662;2023-06-04T03:58:35;102241.41;;;8.41
8533;BMP280;4304;53.876;10.662;2023-06-04T04:01:00;102236.84;;;8.72
8533;BMP280;4304;53.876;10.662;2023-06-04T04:03:26;102243.09;;;8.89
8533;BMP280;4304;53.876;10.662;2023-06-04T04:05:56;102252.28;;;9.20
8533;BMP280;4304;53.876;10.662;2023-06-04T04:08:22;102249.97;;;9.57
8533;BMP280;4304;53.876;10.662;2023-06-04T04:10:48;102244.63;;;9.81
8533;BMP280;4304;53.876;10.662;2023-06-04T04:13:13;102255.19;;;10.19
8533;BMP280;4304;53.876;10.662;2023-06-04T04:15:39;102259.59;;;10.37
8533;BMP280;4304;53.876;10.662;2023-06-04T04:18:04;102263.44;;;10.48
8533;BMP280;4304;53.876;10.662;2023-06-04T04:20:29;102262.28;;;10.73
8533;BMP280;4304;53.876;10.662;2023-06-04T04:22:55;102269.66;;;11.20
8533;BMP280;4304;53.876;10.662;2023-06-04T04:25:21;102282.66;;;11.39
8533;BMP280;4304;53.876;10.662;2023-06-04T04:27:46;102286.53;;;11.67
8533;BMP280;4304;53.876;10.662;2023-06-04T04:30:13;102270.63;;;11.73
8533;BMP280;4304;53.876;10.662;2023-06-04T04:32:41;102286.84;;;11.96
8533;BMP280;4304;53.876;10.662;2023-06-04T04:35:13;102292.47;;;12.22
8533;BMP280;4304;53.876;10.662;2023-06-04T04:37:39;102282.03;;;12.39
8533;BMP280;4304;53.876;10.662;2023-06-04T04:40:06;102293.13;;;12.76
8533;BMP280;4304;53.876;10.662;2023-06-04T04:42:34;102295.59;;;13.11
8533;BMP280;4304;53.876;10.662;2023-06-04T04:45:00;102313.13;;;13.24
8533;BMP280;4304;53.876;10.662;2023-06-04T04:47:25;102295.44;;;13.29
8533;BMP280;4304;53.876;10.662;2023-06-04T04:49:50;102299.59;;;13.49
8533;BMP280;4304;53.876;10.662;2023-06-04T04:52:16;102310.38;;;13.73
8533;BMP280;4304;53.876;10.662;2023-06-04T04:54:41;102308.53;;;13.91
8533;BMP280;4304;53.876;10.662;2023-06-04T04:57:06;102287.69;;;13.74
8533;BMP280;4304;53.876;10.662;2023-06-04T04:59:32;102306.00;;;14.34
8533;BMP280;4304;53.876;10.662;2023-06-04T05:01:57;102301.97;;;14.71
8533;BMP280;4304;53.876;10.662;2023-06-04T05:04:23;102294.97;;;14.99
8533;BMP280;4304;53.876;10.662;2023-06-04T05:06:48;102299.66;;;15.36
8533;BMP280;4304;53.876;10.662;2023-06-04T05:09:14;102292.81;;;15.47
8533;BMP280;4304;53.876;10.662;2023-06-04T05:11:40;102258.59;;;14.95
8533;BMP280;4304;53.876;10.662;2023-06-04T05:14:06;102270.41;;;15.16
8533;BMP280;4304;53.876;10.662;2023-06-04T05:16:32;102264.94;;;15.33
8533;BMP280;4304;53.876;10.662;2023-06-04T05:19:00;102282.53;;;15.71
8533;BMP280;4304;53.876;10.662;2023-06-04T05:21:27;102261.19;;;15.77
8533;BMP280;4304;53.876;10.662;2023-06-04T05:23:54;102258.09;;;15.84
8533;BMP280;4304;53.876;10.662;2023-06-04T05:26:19;102277.13;;;16.38
8533;BMP280;4304;53.876;10.662;2023-06-04T05:28:51;102264.00;;;16.75
8533;BMP280;4304;53.876;10.662;2023-06-04T05:31:16;102255.53;;;16.60
8533;BMP280;4304;53.876;10.662;2023-06-04T05:33:43;102273.16;;;16.95
8533;BMP280;4304;53.876;10.662;2023-06-04T05:36:08;102260.47;;;16.64
8533;BMP280;4304;53.876;10.662;2023-06-04T05:38:34;102267.06;;;16.82
8533;BMP280;4304;53.876;10.662;2023-06-04T05:41:01;102275.03;;;16.93
8533;BMP280;4304;53.876;10.662;2023-06-04T05:43:26;102260.34;;;16.78
8533;BMP280;4304;53.876;10.662;2023-06-04T05:45:52;102247.53;;;16.73
8533;BMP280;4304;53.876;10.662;2023-06-04T05:48:17;102284.97;;;17.37
8533;BMP280;4304;53.876;10.662;2023-06-04T05:50:42;102264.94;;;17.36
8533;BMP280;4304;53.876;10.662;2023-06-04T05:53:08;102280.13;;;17.79
8533;BMP280;4304;53.876;10.662;2023-06-04T05:55:33;102270.31;;;17.58
8533;BMP280;4304;53.876;10.662;2023-06-04T05:58:00;102283.78;;;18.12
8533;BMP280;4304;53.876;10.662;2023-06-04T06:00:25;102242.41;;;17.45
8533;BMP280;4304;53.876;10.662;2023-06-04T06:02:50;102270.00;;;17.86
8533;BMP280;4304;53.876;10.662;2023-06-04T06:05:18;102266.75;;;18.40
8533;BMP280;4304;53.876;10.662;2023-06-04T06:07:44;102283.75;;;17.89
8533;BMP280;4304;53.876;10.662;2023-06-04T06:10:09;102244.63;;;17.38
8533;BMP280;4304;53.876;10.662;2023-06-04T06:12:35;102247.19;;;17.51
8533;BMP280;4304;53.876;10.662;2023-06-04T06:15:00;102274.69;;;18.16
8533;BMP280;4304;53.876;10.662;2023-06-04T06:17:25;102282.03;;;18.90
8533;BMP280;4304;53.876;10.662;2023-06-04T06:19:54;102281.31;;;18.78
8533;BMP280;4304;53.876;10.662;2023-06-04T06:22:19;102289.41;;;18.64
8533;BMP280;4304;53.876;10.662;2023-06-04T06:24:44;102274.78;;;18.38
8533;BMP280;4304;53.876;10.662;2023-06-04T06:27:10;102280.59;;;18.76
8533;BMP280;4304;53.876;10.662;2023-06-04T06:29:36;102311.88;;;19.56
8533;BMP280;4304;53.876;10.662;2023-06-04T06:32:02;102312.22;;;19.63
8533;BMP280;4304;53.876;10.662;2023-06-04T06:34:28;102347.63;;;20.44
8533;BMP280;4304;53.876;10.662;2023-06-04T06:36:56;102307.53;;;19.77
8533;BMP280;4304;53.876;10.662;2023-06-04T06:39:27;102316.72;;;19.93
8533;BMP280;4304;53.876;10.662;2023-06-04T06:41:52;102332.38;;;20.48
8533;BMP280;4304;53.876;10.662;2023-06-04T06:44:18;102346.97;;;20.83
8533;BMP280;4304;53.876;10.662;2023-06-04T06:46:43;102354.00;;;20.62
8533;BMP280;4304;53.876;10.662;2023-06-04T06:49:08;102335.34;;;20.54
8533;BMP280;4304;53.876;10.662;2023-06-04T06:51:34;102374.75;;;21.27
8533;BMP280;4304;53.876;10.662;2023-06-04T06:53:59;102415.94;;;21.70
8533;BMP280;4304;53.876;10.662;2023-06-04T06:56:25;102381.91;;;20.24
8533;BMP280;4304;53.876;10.662;2023-06-04T06:58:51;102348.25;;;20.57
8533;BMP280;4304;53.876;10.662;2023-06-04T07:01:16;102413.31;;;21.80
8533;BMP280;4304;53.876;10.662;2023-06-04T07:03:41;102366.88;;;21.37
8533;BMP280;4304;53.876;10.662;2023-06-04T07:06:07;102370.75;;;21.33
8533;BMP280;4304;53.876;10.662;2023-06-04T07:08:32;102369.13;;;21.71
8533;BMP280;4304;53.876;10.662;2023-06-04T07:10:59;102344.56;;;20.80
8533;BMP280;4304;53.876;10.662;2023-06-04T07:13:24;102379.59;;;21.72
8533;BMP280;4304;53.876;10.662;2023-06-04T07:15:50;102367.25;;;21.23
8533;BMP280;4304;53.876;10.662;2023-06-04T07:18:15;102390.25;;;22.00
8533;BMP280;4304;53.876;10.662;2023-06-04T07:20:40;102355.84;;;21.32
8533;BMP280;4304;53.876;10.662;2023-06-04T07:23:05;102343.91;;;20.67
8533;BMP280;4304;53.876;10.662;2023-06-04T07:25:32;102407.00;;;21.42
8533;BMP280;4304;53.876;10.662;2023-06-04T07:27:57;102465.13;;;22.12
8533;BMP280;4304;53.876;10.662;2023-06-04T07:30:24;102465.47;;;21.98
8533;BMP280;4304;53.876;10.662;2023-06-04T07:32:50;102409.69;;;21.21
8533;BMP280;4304;53.876;10.662;2023-06-04T07:35:16;102433.00;;;21.57
8533;BMP280;4304;53.876;10.662;2023-06-04T07:37:42;102393.31;;;21.37
8533;BMP280;4304;53.876;10.662;2023-06-04T07:40:10;102362.41;;;21.07
8533;BMP280;4304;53.876;10.662;2023-06-04T07:42:36;102381.97;;;21.85
8533;BMP280;4304;53.876;10.662;2023-06-04T07:45:02;102394.81;;;21.50
8533;BMP280;4304;53.876;10.662;2023-06-04T07:47:27;102345.84;;;20.65
8533;BMP280;4304;53.876;10.662;2023-06-04T07:49:53;102368.81;;;21.35
8533;BMP280;4304;53.876;10.662;2023-06-04T07:52:18;102383.41;;;21.98
8533;BMP280;4304;53.876;10.662;2023-06-04T07:54:43;102448.63;;;22.38
8533;BMP280;4304;53.876;10.662;2023-06-04T07:57:09;102426.84;;;22.25
8533;BMP280;4304;53.876;10.662;2023-06-04T07:59:35;102464.13;;;22.42
8533;BMP280;4304;53.876;10.662;2023-06-04T08:02:01;102431.75;;;22.58
8533;BMP280;4304;53.876;10.662;2023-06-04T08:04:26;102398.13;;;22.49
8533;BMP280;4304;53.876;10.662;2023-06-04T08:06:52;102429.50;;;22.25
8533;BMP280;4304;53.876;10.662;2023-06-04T08:09:18;102425.31;;;22.60
8533;BMP280;4304;53.876;10.662;2023-06-04T08:11:43;102427.00;;;23.08
8533;BMP280;4304;53.876;10.662;2023-06-04T08:14:10;102480.84;;;23.27
8533;BMP280;4304;53.876;10.662;2023-06-04T08:16:36;102474.44;;;23.20
8533;BMP280;4304;53.876;10.662;2023-06-04T08:19:01;102484.22;;;23.11
8533;BMP280;4304;53.876;10.662;2023-06-04T08:21:27;102468.34;;;22.92
8533;BMP280;4304;53.876;10.662;2023-06-04T08:23:53;102491.38;;;23.10
8533;BMP280;4304;53.876;10.662;2023-06-04T08:26:19;102440.69;;;22.85
8533;BMP280;4304;53.876;10.662;2023-06-04T08:28:48;102426.72;;;21.87
8533;BMP280;4304;53.876;10.662;2023-06-04T08:31:14;102467.34;;;22.07
8533;BMP280;4304;53.876;10.662;2023-06-04T08:33:39;102451.00;;;22.69
8533;BMP280;4304;53.876;10.662;2023-06-04T08:36:05;102474.31;;;22.66
8533;BMP280;4304;53.876;10.662;2023-06-04T08:38:30;102516.78;;;23.03
8533;BMP280;4304;53.876;10.662;2023-06-04T08:40:59;102514.78;;;23.43
8533;BMP280;4304;53.876;10.662;2023-06-04T08:43:29;102507.16;;;23.12
8533;BMP280;4304;53.876;10.662;2023-06-04T08:45:59;102489.28;;;22.95
8533;BMP280;4304;53.876;10.662;2023-06-04T08:48:28;102509.50;;;22.96
8533;BMP280;4304;53.876;10.662;2023-06-04T08:50:54;102500.97;;;22.73
8533;BMP280;4304;53.876;10.662;2023-06-04T08:53:20;102493.38;;;22.50
8533;BMP280;4304;53.876;10.662;2023-06-04T08:55:47;102511.88;;;23.17
8533;BMP280;4304;53.876;10.662;2023-06-04T08:58:15;102525.13;;;23.46
8533;BMP280;4304;53.876;10.662;2023-06-04T09:00:41;102512.44;;;23.21
8533;BMP280;4304;53.876;10.662;2023-06-04T09:03:07;102491.22;;;23.12
8533;BMP280;4304;53.876;10.662;2023-06-04T09:05:33;102520.38;;;23.30
8533;BMP280;4304;53.876;10.662;2023-06-04T09:08:01;102571.78;;;23.67
8533;BMP280;4304;53.876;10.662;2023-06-04T09:10:29;102538.84;;;23.04
8533;BMP280;4304;53.876;10.662;2023-06-04T09:12:56;102528.75;;;23.35
8533;BMP280;4304;53.876;10.662;2023-06-04T09:15:22;102519.63;;;23.57
8533;BMP280;4304;53.876;10.662;2023-06-04T09:17:48;102537.84;;;23.33
8533;BMP280;4304;53.876;10.662;2023-06-04T09:20:23;102514.47;;;23.55
8533;BMP280;4304;53.876;10.662;2023-06-04T09:22:48;102507.66;;;23.43
8533;BMP280;4304;53.876;10.662;2023-06-04T09:25:25;102511.84;;;23.36
8533;BMP280;4304;53.876;10.662;2023-06-04T09:27:51;102510.03;;;23.46
8533;BMP280;4304;53.876;10.662;2023-06-04T09:30:16;102533.03;;;23.55
8533;BMP280;4304;53.876;10.662;2023-06-04T09:32:42;102559.78;;;23.07
8533;BMP280;4304;53.876;10.662;2023-06-04T09:35:15;102519.81;;;23.17
8533;BMP280;4304;53.876;10.662;2023-06-04T09:37:42;102531.94;;;23.67
8533;BMP280;4304;53.876;10.662;2023-06-04T09:40:08;102550.94;;;23.44
8533;BMP280;4304;53.876;10.662;2023-06-04T09:42:45;102516.63;;;23.42
8533;BMP280;4304;53.876;10.662;2023-06-04T09:45:11;102531.53;;;23.53
8533;BMP280;4304;53.876;10.662;2023-06-04T09:47:43;102545.59;;;23.81
8533;BMP280;4304;53.876;10.662;2023-06-04T09:50:11;102538.50;;;23.72
8533;BMP280;4304;53.876;10.662;2023-06-04T09:52:37;102529.78;;;23.80
8533;BMP280;4304;53.876;10.662;2023-06-04T09:55:15;102508.31;;;23.73
8533;BMP280;4304;53.876;10.662;2023-06-04T09:57:46;102508.44;;;24.08
8533;BMP280;4304;53.876;10.662;2023-06-04T10:00:12;102537.34;;;24.11
8533;BMP280;4304;53.876;10.662;2023-06-04T10:02:40;102545.19;;;24.12
8533;BMP280;4304;53.876;10.662;2023-06-04T10:05:09;102576.31;;;23.93
8533;BMP280;4304;53.876;10.662;2023-06-04T10:07:38;102588.84;;;24.10
8533;BMP280;4304;53.876;10.662;2023-06-04T10:10:04;102578.47;;;23.61
8533;BMP280;4304;53.876;10.662;2023-06-04T10:12:31;102522.56;;;23.72
8533;BMP280;4304;53.876;10.662;2023-06-04T10:15:02;102549.78;;;23.84
8533;BMP280;4304;53.876;10.662;2023-06-04T10:17:28;102537.94;;;23.59
8533;BMP280;4304;53.876;10.662;2023-06-04T10:19:56;102516.88;;;24.30
8533;BMP280;4304;53.876;10.662;2023-06-04T10:22:21;102555.34;;;24.00
8533;BMP280;4304;53.876;10.662;2023-06-04T10:24:47;102538.63;;;23.71
8533;BMP280;4304;53.876;10.662;2023-06-04T10:27:12;102528.97;;;23.70
8533;BMP280;4304;53.876;10.662;2023-06-04T10:29:39;102568.09;;;24.23
8533;BMP280;4304;53.876;10.662;2023-06-04T10:32:04;102523.44;;;24.36
8533;BMP280;4304;53.876;10.662;2023-06-04T10:34:30;102556.97;;;24.46
8533;BMP280;4304;53.876;10.662;2023-06-04T10:36:58;102550.53;;;24.66
8533;BMP280;4304;53.876;10.662;2023-06-04T10:39:31;102532.97;;;24.55
8533;BMP280;4304;53.876;10.662;2023-06-04T10:42:04;102545.53;;;24.00
8533;BMP280;4304;53.876;10.662;2023-06-04T10:44:31;102509.69;;;23.77
8533;BMP280;4304;53.876;10.662;2023-06-04T10:46:57;102539.97;;;24.30
8533;BMP280;4304;53.876;10.662;2023-06-04T10:49:29;102566.25;;;23.87
8533;BMP280;4304;53.876;10.662;2023-06-04T10:51:56;102540.03;;;23.56
8533;BMP280;4304;53.876;10.662;2023-06-04T10:54:25;102524.69;;;24.05
8533;BMP280;4304;53.876;10.662;2023-06-04T10:56:54;102526.84;;;24.19
8533;BMP280;4304;53.876;10.662;2023-06-04T10:59:19;102549.75;;;24.56
8533;BMP280;4304;53.876;10.662;2023-06-04T11:01:45;102583.13;;;24.68
8533;BMP280;4304;53.876;10.662;2023-06-04T11:04:21;102552.22;;;24.40
8533;BMP280;4304;53.876;10.662;2023-06-04T11:06:47;102514.75;;;24.07
8533;BMP280;4304;53.876;10.662;2023-06-04T11:09:14;102585.59;;;24.16
8533;BMP280;4304;53.876;10.662;2023-06-04T11:11:43;102567.09;;;24.24
8533;BMP280;4304;53.876;10.662;2023-06-04T11:14:12;102553.16;;;23.76
8533;BMP280;4304;53.876;10.662;2023-06-04T11:16:38;102550.38;;;23.59
8533;BMP280;4304;53.876;10.662;2023-06-04T11:19:03;102504.13;;;23.71
8533;BMP280;4304;53.876;10.662;2023-06-04T11:21:29;102488.03;;;24.35
8533;BMP280;4304;53.876;10.662;2023-06-04T11:23:58;102528.91;;;24.25
8533;BMP280;4304;53.876;10.662;2023-06-04T11:26:33;102478.03;;;23.93
8533;BMP280;4304;53.876;10.662;2023-06-04T11:29:00;102537.28;;;24.39
8533;BMP280;4304;53.876;10.662;2023-06-04T11:31:25;102512.47;;;24.12
8533;BMP280;4304;53.876;10.662;2023-06-04T11:33:51;102483.78;;;24.15
8533;BMP280;4304;53.876;10.662;2023-06-04T11:36:27;102529.97;;;24.41
8533;BMP280;4304;53.876;10.662;2023-06-04T11:39:03;102517.84;;;24.56
8533;BMP280;4304;53.876;10.662;2023-06-04T11:41:32;102523.34;;;24.18
8533;BMP280;4304;53.876;10.662;2023-06-04T11:44:02;102528.72;;;24.62
8533;BMP280;4304;53.876;10.662;2023-06-04T11:46:28;102515.19;;;24.73
8533;BMP280;4304;53.876;10.662;2023-06-04T11:48:54;102499.34;;;24.64
8533;BMP280;4304;53.876;10.662;2023-06-04T11:51:23;102552.22;;;24.84
8533;BMP280;4304;53.876;10.662;2023-06-04T11:53:48;102493.88;;;25.00
8533;BMP280;4304;53.876;10.662;2023-06-04T11:56:15;102544.97;;;25.03
8533;BMP280;4304;53.876;10.662;2023-06-04T11:58:41;102493.72;;;25.01
8533;BMP280;4304;53.876;10.662;2023-06-04T12:01:08;102503.59;;;24.91
8533;BMP280;4304;53.876;10.662;2023-06-04T12:03:38;102537.97;;;24.58
8533;BMP280;4304;53.876;10.662;2023-06-04T12:08:54;102495.03;;;24.09
8533;BMP280;4304;53.876;10.662;2023-06-04T12:11:27;102514.56;;;24.45
8533;BMP280;4304;53.876;10.662;2023-06-04T12:13:58;102479.09;;;24.09
8533;BMP280;4304;53.876;10.662;2023-06-04T12:16:24;102505.63;;;24.63
8533;BMP280;4304;53.876;10.662;2023-06-04T12:18:49;102519.63;;;24.38
8533;BMP280;4304;53.876;10.662;2023-06-04T12:21:25;102494.38;;;24.51
8533;BMP280;4304;53.876;10.662;2023-06-04T12:24:13;102457.13;;;25.46
8533;BMP280;4304;53.876;10.662;2023-06-04T12:26:40;102526.13;;;25.14
8533;BMP280;4304;53.876;10.662;2023-06-04T12:29:11;102478.75;;;25.68
8533;BMP280;4304;53.876;10.662;2023-06-04T12:31:41;102518.63;;;25.35
8533;BMP280;4304;53.876;10.662;2023-06-04T12:34:06;102491.75;;;25.46
8533;BMP280;4304;53.876;10.662;2023-06-04T12:36:32;102529.31;;;25.43
8533;BMP280;4304;53.876;10.662;2023-06-04T12:39:02;102537.25;;;25.35
8533;BMP280;4304;53.876;10.662;2023-06-04T12:41:29;102524.56;;;25.29
8533;BMP280;4304;53.876;10.662;2023-06-04T12:43:55;102513.38;;;25.26
8533;BMP280;4304;53.876;10.662;2023-06-04T12:46:21;102507.97;;;25.35
8533;BMP280;4304;53.876;10.662;2023-06-04T12:48:47;102520.44;;;25.60
8533;BMP280;4304;53.876;10.662;2023-06-04T12:51:13;102532.94;;;25.59
8533;BMP280;4304;53.876;10.662;2023-06-04T12:53:39;102523.41;;;25.74
8533;BMP280;4304;53.876;10.662;2023-06-04T12:56:05;102531.25;;;25.33
8533;BMP280;4304;53.876;10.662;2023-06-04T12:58:31;102523.03;;;25.27
8533;BMP280;4304;53.876;10.662;2023-06-04T13:00:57;102524.03;;;24.91
8533;BMP280;4304;53.876;10.662;2023-06-04T13:03:22;102558.03;;;25.57
8533;BMP280;4304;53.876;10.662;2023-06-04T13:05:48;102525.66;;;25.01
8533;BMP280;4304;53.876;10.662;2023-06-04T13:08:14;102514.16;;;25.18
8533;BMP280;4304;53.876;10.662;2023-06-04T13:10:39;102523.28;;;25.16
8533;BMP280;4304;53.876;10.662;2023-06-04T13:13:04;102495.75;;;25.50
8533;BMP280;4304;53.876;10.662;2023-06-04T13:15:30;102519.63;;;25.77
8533;BMP280;4304;53.876;10.662;2023-06-04T13:17:55;102523.13;;;25.17
8533;BMP280;4304;53.876;10.662;2023-06-04T13:20:20;102511.94;;;25.31
8533;BMP280;4304;53.876;10.662;2023-06-04T13:22:46;102523.06;;;25.52
8533;BMP280;4304;53.876;10.662;2023-06-04T13:25:12;102507.19;;;25.42
8533;BMP280;4304;53.876;10.662;2023-06-04T13:27:37;102513.81;;;25.38
8533;BMP280;4304;53.876;10.662;2023-06-04T13:30:03;102500.25;;;25.49
8533;BMP280;4304;53.876;10.662;2023-06-04T13:32:29;102505.81;;;24.96
8533;BMP280;4304;53.876;10.662;2023-06-04T13:34:54;102476.03;;;25.35
8533;BMP280;4304;53.876;10.662;2023-06-04T13:37:20;102473.72;;;25.15
8533;BMP280;4304;53.876;10.662;2023-06-04T13:39:45;102465.19;;;25.54
8533;BMP280;4304;53.876;10.662;2023-06-04T13:42:10;102464.75;;;25.41
8533;BMP280;4304;53.876;10.662;2023-06-04T13:44:36;102487.00;;;25.57
8533;BMP280;4304;53.876;10.662;2023-06-04T13:47:01;102477.59;;;24.86
8533;BMP280;4304;53.876;10.662;2023-06-04T13:49:26;102484.22;;;24.99
8533;BMP280;4304;53.876;10.662;2023-06-04T13:51:52;102466.94;;;25.20
8533;BMP280;4304;53.876;10.662;2023-06-04T13:54:17;102460.31;;;24.89
8533;BMP280;4304;53.876;10.662;2023-06-04T13:56:43;102470.69;;;24.75
8533;BMP280;4304;53.876;10.662;2023-06-04T13:59:09;102448.31;;;24.68
8533;BMP280;4304;53.876;10.662;2023-06-04T14:01:34;102448.63;;;24.48
8533;BMP280;4304;53.876;10.662;2023-06-04T14:04:00;102422.81;;;23.97
8533;BMP280;4304;53.876;10.662;2023-06-04T14:06:25;102427.00;;;23.90
8533;BMP280;4304;53.876;10.662;2023-06-04T14:08:50;102451.34;;;23.95
8533;BMP280;4304;53.876;10.662;2023-06-04T14:11:16;102418.97;;;23.46
8533;BMP280;4304;53.876;10.662;2023-06-04T14:13:41;102414.84;;;23.60
8533;BMP280;4304;53.876;10.662;2023-06-04T14:16:10;102387.78;;;23.02
8533;BMP280;4304;53.876;10.662;2023-06-04T14:18:35;102396.56;;;23.12